createdAt,value
2023-09-02T00:02:15.467Z,99667.75
2023-09-02T00:04:42.518Z,99674.08
2023-09-02T00:07:09.142Z,99673.77
2023-09-02T00:09:35.889Z,99676.25
2023-09-02T00:12:02.731Z,99678.53
2023-09-02T00:14:29.673Z,99674.89
2023-09-02T00:16:56.416Z,99676.83
2023-09-02T00:19:23.567Z,99671.30
2023-09-02T00:21:50.304Z,99679.28
2023-09-02T00:24:16.978Z,99680.96
2023-09-02T00:26:43.789Z,99680.35
2023-09-02T00:29:10.526Z,99674.43
2023-09-02T00:31:37.304Z,99683.45
2023-09-02T00:34:04.517Z,99682.79
2023-09-02T00:36:32.823Z,99681.01
2023-09-02T00:38:59.951Z,99682.31
2023-09-02T00:41:30.171Z,99682.79
2023-09-02T00:43:57.114Z,99684.05
2023-09-02T00:46:24.245Z,99685.91
2023-09-02T00:48:50.998Z,99684.65
2023-09-02T00:51:17.645Z,99683.39
2023-09-02T00:53:47.652Z,99679.98
2023-09-02T00:56:14.732Z,99677.85
2023-09-02T00:58:41.467Z,99677.86
2023-09-02T01:01:08.729Z,99675.48
2023-09-02T01:03:38.575Z,99676.48
2023-09-02T01:06:06.265Z,99676.00
2023-09-02T01:08:34.030Z,99677.19
2023-09-02T01:11:01.381Z,99681.52
2023-09-02T01:13:29.347Z,99681.23
2023-09-02T01:15:56.735Z,99678.86
2023-09-02T01:18:24.363Z,99676.12
2023-09-02T01:21:12.708Z,99680.27
2023-09-02T01:23:39.959Z,99680.20
2023-09-02T01:26:45.643Z,99681.15
2023-09-02T01:29:13.417Z,99688.37
2023-09-02T01:31:40.040Z,99689.95
2023-09-02T01:34:07.163Z,99687.29
2023-09-02T01:36:34.312Z,99684.17
2023-09-02T01:39:01.053Z,99692.84
2023-09-02T01:41:28.207Z,99694.42
2023-09-02T01:43:55.037Z,99689.16
2023-09-02T01:46:21.940Z,99688.48
2023-09-02T01:48:48.829Z,99689.14
2023-09-02T01:51:15.508Z,99690.20
2023-09-02T01:53:43.127Z,99694.66
2023-09-02T01:56:09.970Z,99695.96
2023-09-02T01:58:37.224Z,99698.12
2023-09-02T02:01:04.207Z,99694.81
2023-09-02T02:03:38.705Z,99699.22
2023-09-02T02:06:06.561Z,99697.33
2023-09-02T02:08:38.015Z,99699.28
2023-09-02T02:11:04.743Z,99697.14
2023-09-02T02:13:31.599Z,99698.31
2023-09-02T02:15:58.385Z,99696.59
2023-09-02T02:18:25.175Z,99690.30
2023-09-02T02:21:03.070Z,99694.58
2023-09-02T02:23:31.042Z,99696.98
2023-09-02T02:26:05.154Z,99694.31
2023-09-02T02:28:32.221Z,99695.31
2023-09-02T02:30:59.382Z,99700.48
2023-09-02T02:33:26.416Z,99698.11
2023-09-02T02:35:53.955Z,99700.05
2023-09-02T02:38:21.005Z,99699.96
2023-09-02T02:40:47.743Z,99701.09
2023-09-02T02:43:14.485Z,99703.88
2023-09-02T02:45:44.429Z,99700.13
2023-09-02T02:48:15.948Z,99697.14
2023-09-02T02:50:42.676Z,99693.64
2023-09-02T02:53:09.825Z,99693.89
2023-09-02T02:55:36.675Z,99694.59
2023-09-02T02:58:04.236Z,99699.73
2023-09-02T03:00:31.103Z,99705.39
2023-09-02T03:02:58.111Z,99705.71
2023-09-02T03:05:25.390Z,99704.96
2023-09-02T03:07:52.320Z,99704.05
2023-09-02T03:10:19.079Z,99697.50
2023-09-02T03:12:46.116Z,99697.55
2023-09-02T03:15:13.563Z,99699.71
2023-09-02T03:17:40.339Z,99699.09
2023-09-02T03:20:08.196Z,99699.55
2023-09-02T03:22:35.423Z,99707.01
2023-09-02T03:25:02.778Z,99709.86
2023-09-02T03:27:30.227Z,99708.92
2023-09-02T03:29:57.561Z,99705.30
2023-09-02T03:32:26.986Z,99705.92
2023-09-02T03:34:54.469Z,99707.05
2023-09-02T03:37:21.169Z,99706.29
2023-09-02T03:39:48.254Z,99704.91
2023-09-02T03:42:15.274Z,99709.77
2023-09-02T03:44:42.131Z,99710.59
2023-09-02T03:47:09.003Z,99712.90
2023-09-02T03:49:36.104Z,99718.00
2023-09-02T03:52:03.968Z,99724.43
2023-09-02T03:54:30.900Z,99724.15
2023-09-02T03:56:57.769Z,99726.45
2023-09-02T03:59:24.742Z,99727.56
2023-09-02T04:01:52.081Z,99731.69
2023-09-02T04:04:20.025Z,99731.64
2023-09-02T04:06:46.750Z,99736.98
2023-09-02T04:09:13.706Z,99736.08
2023-09-02T04:11:42.392Z,99744.23
2023-09-02T04:14:09.175Z,99743.21
2023-09-02T04:16:36.181Z,99746.29
2023-09-02T04:19:04.794Z,99746.31
2023-09-02T04:21:31.736Z,99747.91
2023-09-02T04:23:58.447Z,99747.82
2023-09-02T04:26:25.696Z,99749.10
2023-09-02T04:28:54.781Z,99753.73
2023-09-02T04:31:23.173Z,99752.98
2023-09-02T04:33:50.659Z,99750.90
2023-09-02T04:36:17.389Z,99749.61
2023-09-02T04:38:45.341Z,99751.64
2023-09-02T04:41:12.385Z,99754.60
2023-09-02T04:43:40.460Z,99753.16
2023-09-02T04:46:09.280Z,99755.58
2023-09-02T04:48:39.070Z,99765.11
2023-09-02T04:51:08.871Z,99763.05
2023-09-02T04:53:37.246Z,99766.58
2023-09-02T04:56:05.478Z,99766.09
2023-09-02T04:58:33.697Z,99765.49
2023-09-02T05:01:10.066Z,99763.07
2023-09-02T05:03:38.643Z,99763.54
2023-09-02T05:06:08.487Z,99768.45
2023-09-02T05:08:38.484Z,99770.65
2023-09-02T05:11:05.652Z,99775.37
2023-09-02T05:13:32.566Z,99781.17
2023-09-02T05:15:59.602Z,99785.90
2023-09-02T05:18:27.378Z,99781.92
2023-09-02T05:20:55.959Z,99784.46
2023-09-02T05:23:23.011Z,99786.77
2023-09-02T05:25:56.126Z,99783.16
2023-09-02T05:28:23.756Z,99782.05
2023-09-02T05:30:52.813Z,99784.80
2023-09-02T05:33:20.158Z,99782.70
2023-09-02T05:35:47.460Z,99786.15
2023-09-02T05:38:14.208Z,99786.71
2023-09-02T05:40:42.614Z,99787.31
2023-09-02T05:43:09.465Z,99787.52
2023-09-02T05:45:36.283Z,99798.55
2023-09-02T05:48:04.381Z,99801.91
2023-09-02T05:50:31.380Z,99806.73
2023-09-02T05:52:58.170Z,99807.92
2023-09-02T05:55:25.062Z,99812.56
2023-09-02T05:57:51.904Z,99809.46
2023-09-02T06:00:18.742Z,99814.48
2023-09-02T06:02:45.619Z,99816.30
2023-09-02T06:05:12.325Z,99815.59
2023-09-02T06:07:39.166Z,99814.51
2023-09-02T06:10:06.221Z,99820.28
2023-09-02T06:12:33.062Z,99821.68
2023-09-02T06:15:00.832Z,99821.46
2023-09-02T06:17:31.355Z,99822.03
2023-09-02T06:19:59.316Z,99820.35
2023-09-02T06:22:25.952Z,99822.51
2023-09-02T06:24:54.948Z,99831.58
2023-09-02T06:27:21.896Z,99837.76
2023-09-02T06:29:48.732Z,99836.11
2023-09-02T06:32:15.454Z,99833.77
2023-09-02T06:34:42.145Z,99834.22
2023-09-02T06:37:08.855Z,99832.15
2023-09-02T06:39:35.693Z,99836.88
2023-09-02T06:42:02.546Z,99833.67
2023-09-02T06:44:31.934Z,99833.58
2023-09-02T06:46:58.800Z,99837.90
2023-09-02T06:49:25.566Z,99840.58
2023-09-02T06:51:53.716Z,99842.21
2023-09-02T06:54:20.837Z,99846.65
2023-09-02T06:56:47.579Z,99842.45
2023-09-02T06:59:14.324Z,99846.78
2023-09-02T07:01:41.076Z,99848.53
2023-09-02T07:04:08.374Z,99854.15
2023-09-02T07:06:35.476Z,99856.17
2023-09-02T07:09:03.144Z,99861.30
2023-09-02T07:11:30.303Z,99855.94
2023-09-02T07:13:57.744Z,99860.27
2023-09-02T07:16:24.489Z,99858.83
2023-09-02T07:18:51.254Z,99861.33
2023-09-02T07:21:23.060Z,99860.74
2023-09-02T07:23:50.830Z,99859.01
2023-09-02T07:26:17.605Z,99863.79
2023-09-02T07:28:44.331Z,99858.07
2023-09-02T07:31:11.215Z,99858.64
2023-09-02T07:33:38.096Z,99862.48
2023-09-02T07:36:12.513Z,99864.08
2023-09-02T07:38:41.096Z,99867.59
2023-09-02T07:41:09.378Z,99867.25
2023-09-02T07:43:36.418Z,99861.21
2023-09-02T07:46:03.102Z,99865.16
2023-09-02T07:48:30.206Z,99861.36
2023-09-02T07:50:56.958Z,99859.30
2023-09-02T07:53:23.798Z,99860.77
2023-09-02T07:55:50.561Z,99858.55
2023-09-02T07:58:17.368Z,99860.51
2023-09-02T08:00:44.108Z,99860.92
2023-09-02T08:03:11.244Z,99856.00
2023-09-02T08:05:42.226Z,99854.36
2023-09-02T08:08:09.068Z,99855.11
2023-09-02T08:10:38.549Z,99851.30
2023-09-02T08:13:07.536Z,99853.32
2023-09-02T08:15:34.451Z,99854.08
2023-09-02T08:18:01.387Z,99853.93
2023-09-02T08:20:30.653Z,99849.58
2023-09-02T08:22:58.286Z,99851.31
2023-09-02T08:25:25.135Z,99855.46
2023-09-02T08:27:51.799Z,99854.67
2023-09-02T08:30:18.742Z,99850.77
2023-09-02T08:32:45.701Z,99848.73
2023-09-02T08:35:13.005Z,99854.92
2023-09-02T08:37:39.875Z,99858.05
2023-09-02T08:40:07.707Z,99860.45
2023-09-02T08:42:36.708Z,99858.05
2023-09-02T08:45:09.497Z,99857.64
2023-09-02T08:47:38.532Z,99856.82
2023-09-02T08:50:09.844Z,99856.25
2023-09-02T08:52:37.665Z,99856.80
2023-09-02T08:55:05.372Z,99855.45
2023-09-02T08:57:33.371Z,99854.73
2023-09-02T09:00:00.510Z,99860.48
2023-09-02T09:02:28.152Z,99863.88
2023-09-02T09:04:55.352Z,99869.44
2023-09-02T09:07:22.329Z,99866.86
2023-09-02T09:09:49.308Z,99866.57
2023-09-02T09:12:16.624Z,99865.74
2023-09-02T09:14:46.440Z,99863.36
2023-09-02T09:17:13.531Z,99862.98
2023-09-02T09:19:40.409Z,99862.16
2023-09-02T09:22:07.305Z,99858.63
2023-09-02T09:24:35.245Z,99857.36
2023-09-02T09:27:05.772Z,99859.73
2023-09-02T09:29:42.563Z,99861.59
2023-09-02T09:32:11.593Z,99857.58
2023-09-02T09:34:42.609Z,99851.08
2023-09-02T09:37:10.547Z,99857.13
2023-09-02T09:39:41.392Z,99858.12
2023-09-02T09:42:08.327Z,99857.14
2023-09-02T09:44:34.995Z,99861.86
2023-09-02T09:47:01.712Z,99864.49
2023-09-02T09:49:29.284Z,99863.20
2023-09-02T09:52:02.457Z,99858.39
2023-09-02T09:54:41.014Z,99854.86
2023-09-02T09:57:12.012Z,99853.06
2023-09-02T09:59:38.903Z,99849.08
2023-09-02T10:02:06.424Z,99847.55
2023-09-02T10:04:33.657Z,99846.70
2023-09-02T10:07:01.634Z,99847.10
2023-09-02T10:09:42.390Z,99853.50
2023-09-02T10:12:16.505Z,99857.23
2023-09-02T10:14:44.678Z,99856.90
2023-09-02T10:17:11.452Z,99862.16
2023-09-02T10:19:38.594Z,99864.08
2023-09-02T10:22:05.778Z,99862.25
2023-09-02T10:24:49.455Z,99857.80
2023-09-02T10:27:23.986Z,99857.60
2023-09-02T10:29:57.490Z,99852.46
2023-09-02T10:32:38.085Z,99853.42
2023-09-02T10:35:08.585Z,99852.05
2023-09-02T10:37:42.402Z,99851.63
2023-09-02T10:40:10.781Z,99848.39
2023-09-02T10:42:37.595Z,99844.98
2023-09-02T10:45:05.054Z,99844.75
2023-09-02T10:47:34.021Z,99841.85
2023-09-02T10:50:00.983Z,99838.14
2023-09-02T10:52:28.035Z,99836.84
2023-09-02T10:55:09.019Z,99835.95
2023-09-02T10:57:45.893Z,99835.96
2023-09-02T11:00:20.025Z,99836.52
2023-09-02T11:02:54.130Z,99836.52
2023-09-02T11:05:27.797Z,99836.59
2023-09-02T11:07:54.965Z,99837.27
2023-09-02T11:10:22.538Z,99836.73
2023-09-02T11:13:06.638Z,99837.93
2023-09-02T11:15:34.845Z,99833.48
2023-09-02T11:18:27.654Z,99827.63
2023-09-02T11:20:54.520Z,99831.73
2023-09-02T11:23:21.989Z,99829.70
2023-09-02T11:26:00.439Z,99825.38
2023-09-02T11:28:27.777Z,99821.86
2023-09-02T11:31:06.018Z,99821.55
2023-09-02T11:33:34.146Z,99824.40
2023-09-02T11:36:14.822Z,99824.67
2023-09-02T11:38:41.760Z,99820.84
2023-09-02T11:41:08.595Z,99817.19
2023-09-02T11:43:36.875Z,99814.63
2023-09-02T11:46:03.754Z,99817.67
2023-09-02T11:48:31.114Z,99814.47
2023-09-02T11:50:59.250Z,99811.88
2023-09-02T11:53:28.030Z,99807.89
2023-09-02T11:55:54.783Z,99804.59
2023-09-02T11:58:21.718Z,99803.48
2023-09-02T12:00:48.594Z,99802.27
2023-09-02T12:03:25.967Z,99805.17
2023-09-02T12:05:53.912Z,99803.65
2023-09-02T12:08:20.767Z,99801.61
2023-09-02T12:10:47.906Z,99805.27
2023-09-02T12:13:15.741Z,99804.34
2023-09-02T12:15:48.104Z,99798.77
2023-09-02T12:18:14.931Z,99804.61
2023-09-02T12:20:41.837Z,99804.95
2023-09-02T12:23:08.667Z,99813.05
2023-09-02T12:25:35.818Z,99817.23
2023-09-02T12:28:14.841Z,99818.45
2023-09-02T12:30:41.857Z,99818.19
2023-09-02T12:33:08.834Z,99814.04
2023-09-02T12:35:35.499Z,99810.23
2023-09-02T12:38:06.463Z,99806.61
2023-09-02T12:40:33.594Z,99807.48
2023-09-02T12:43:01.040Z,99805.11
2023-09-02T12:45:36.838Z,99803.80
2023-09-02T12:48:04.400Z,99805.01
2023-09-02T12:50:32.296Z,99805.54
2023-09-02T12:53:02.921Z,99805.86
2023-09-02T12:55:30.277Z,99803.40
2023-09-02T13:00:08.670Z,99793.86
2023-09-02T13:02:36.523Z,99799.32
2023-09-02T13:05:04.301Z,99800.42
2023-09-02T13:07:31.650Z,99801.48
2023-09-02T13:09:59.167Z,99796.23
2023-09-02T13:12:28.715Z,99794.80
2023-09-02T13:14:55.471Z,99793.51
2023-09-02T13:17:24.228Z,99798.92
2023-09-02T13:19:51.271Z,99800.90
2023-09-02T13:22:18.004Z,99798.61
2023-09-02T13:24:45.041Z,99789.81
2023-09-02T13:27:11.808Z,99788.30
2023-09-02T13:29:38.369Z,99787.02
2023-09-02T13:32:28.423Z,99789.41
2023-09-02T13:35:23.404Z,99787.33
2023-09-02T13:37:50.217Z,99789.45
2023-09-02T13:40:18.715Z,99789.87
2023-09-02T13:42:46.395Z,99789.30
2023-09-02T13:45:29.463Z,99787.77
2023-09-02T13:47:56.944Z,99788.17
2023-09-02T13:50:23.823Z,99786.92
2023-09-02T13:52:51.506Z,99789.39
2023-09-02T13:55:21.819Z,99789.23
2023-09-02T13:57:49.359Z,99787.73
2023-09-02T14:00:27.795Z,99784.31
2023-09-02T14:02:55.273Z,99788.77
2023-09-02T14:05:23.497Z,99787.59
2023-09-02T14:07:50.545Z,99779.70
2023-09-02T14:10:20.069Z,99779.66
2023-09-02T14:12:48.116Z,99785.73
2023-09-02T14:15:15.944Z,99782.30
2023-09-02T14:17:43.273Z,99783.20
2023-09-02T14:20:11.001Z,99780.34
2023-09-02T14:22:37.890Z,99780.59
2023-09-02T14:25:05.396Z,99780.36
2023-09-02T14:27:34.839Z,99782.58
2023-09-02T14:30:01.531Z,99786.95
2023-09-02T14:32:28.422Z,99784.23
2023-09-02T14:34:55.222Z,99783.23
2023-09-02T14:37:21.986Z,99782.77
2023-09-02T14:39:48.843Z,99782.65
2023-09-02T14:42:15.641Z,99778.20
2023-09-02T14:44:42.382Z,99778.41
2023-09-02T14:47:11.067Z,99780.73
2023-09-02T14:49:37.913Z,99778.30
2023-09-02T14:52:05.466Z,99779.59
2023-09-02T14:54:33.889Z,99781.31
2023-09-02T14:57:03.251Z,99779.80
2023-09-02T14:59:31.424Z,99780.45
2023-09-02T15:01:58.302Z,99778.52
2023-09-02T15:04:25.094Z,99782.55
2023-09-02T15:06:52.387Z,99782.98
2023-09-02T15:09:28.628Z,99789.86
2023-09-02T15:11:55.678Z,99795.01
2023-09-02T15:14:25.177Z,99797.96
2023-09-02T15:16:53.170Z,99795.88
2023-09-02T15:19:21.150Z,99796.10
2023-09-02T15:21:47.843Z,99794.48
2023-09-02T15:24:15.632Z,99791.69
2023-09-02T15:26:42.366Z,99785.34
2023-09-02T15:29:22.507Z,99788.92
2023-09-02T15:31:51.212Z,99788.52
2023-09-02T15:34:18.852Z,99790.14
2023-09-02T15:36:46.825Z,99794.45
2023-09-02T15:39:18.982Z,99800.39
2023-09-02T15:41:45.752Z,99794.46
2023-09-02T15:44:12.390Z,99799.59
2023-09-02T15:46:39.304Z,99799.48
2023-09-02T15:49:05.955Z,99801.85
2023-09-02T15:51:33.319Z,99801.89
2023-09-02T15:54:00.338Z,99800.14
2023-09-02T15:56:27.384Z,99801.86
2023-09-02T15:58:54.068Z,99807.27
2023-09-02T16:01:20.821Z,99806.27
2023-09-02T16:03:47.672Z,99807.80
2023-09-02T16:06:14.601Z,99809.86
2023-09-02T16:08:41.388Z,99806.50
2023-09-02T16:11:08.126Z,99804.98
2023-09-02T16:13:34.976Z,99804.04
2023-09-02T16:16:01.729Z,99800.77
2023-09-02T16:18:29.280Z,99803.27
2023-09-02T16:20:56.115Z,99809.08
2023-09-02T16:23:23.021Z,99815.52
2023-09-02T16:25:49.854Z,99819.92
2023-09-02T16:28:16.733Z,99817.34
2023-09-02T16:30:46.125Z,99822.30
2023-09-02T16:33:12.892Z,99825.98
2023-09-02T16:35:39.646Z,99830.10
2023-09-02T16:38:06.591Z,99836.42
2023-09-02T16:40:33.402Z,99835.55
2023-09-02T16:43:00.173Z,99836.14
2023-09-02T16:45:27.797Z,99835.38
2023-09-02T16:47:55.436Z,99833.41
2023-09-02T16:50:22.468Z,99836.20
2023-09-02T16:52:50.749Z,99839.25
2023-09-02T16:55:18.148Z,99842.15
2023-09-02T16:57:46.719Z,99844.90
2023-09-02T17:00:14.659Z,99843.62
2023-09-02T17:02:46.039Z,99842.77
2023-09-02T17:05:18.248Z,99850.83
2023-09-02T17:07:45.559Z,99851.32
2023-09-02T17:10:20.707Z,99847.79
2023-09-02T17:12:47.977Z,99848.10
2023-09-02T17:15:16.124Z,99852.00
2023-09-02T17:17:45.278Z,99855.15
2023-09-02T17:20:29.049Z,99858.39
2023-09-02T17:22:56.939Z,99851.85
2023-09-02T17:25:23.861Z,99853.11
2023-09-02T17:27:54.813Z,99852.70
2023-09-02T17:30:22.457Z,99850.27
2023-09-02T17:32:49.594Z,99845.50
2023-09-02T17:35:16.639Z,99844.02
2023-09-02T17:37:43.345Z,99844.64
2023-09-02T17:40:10.812Z,99840.05
2023-09-02T17:42:41.410Z,99840.77
2023-09-02T17:45:09.342Z,99844.55
2023-09-02T17:47:36.829Z,99850.34
2023-09-02T17:50:11.288Z,99847.69
2023-09-02T17:52:38.471Z,99847.35
2023-09-02T17:55:06.158Z,99846.29
2023-09-02T17:57:34.542Z,99851.44
2023-09-02T18:00:01.554Z,99854.66
2023-09-02T18:02:28.730Z,99858.42
2023-09-02T18:04:56.575Z,99859.43
2023-09-02T18:07:23.621Z,99863.09
2023-09-02T18:09:50.389Z,99860.08
2023-09-02T18:12:17.311Z,99856.09
2023-09-02T18:14:45.301Z,99857.16
2023-09-02T18:17:12.216Z,99854.95
2023-09-02T18:19:39.576Z,99851.42
2023-09-02T18:22:06.825Z,99851.23
2023-09-02T18:24:36.842Z,99851.05
2023-09-02T18:27:04.426Z,99846.64
2023-09-02T18:29:31.574Z,99852.75
2023-09-02T18:31:58.826Z,99850.39
2023-09-02T18:34:25.849Z,99843.84
2023-09-02T18:36:52.583Z,99842.93
2023-09-02T18:39:21.777Z,99840.35
2023-09-02T18:41:48.831Z,99842.88
2023-09-02T18:44:15.688Z,99844.29
2023-09-02T18:46:42.488Z,99840.68
2023-09-02T18:49:10.691Z,99842.67
2023-09-02T18:51:37.423Z,99840.95
2023-09-02T18:54:04.878Z,99838.52
2023-09-02T18:56:31.829Z,99843.95
2023-09-02T18:58:59.647Z,99837.66
2023-09-02T19:01:26.440Z,99832.83
2023-09-02T19:03:53.140Z,99830.84
2023-09-02T19:06:20.019Z,99829.64
2023-09-02T19:08:46.856Z,99835.20
2023-09-02T19:11:15.431Z,99839.73
2023-09-02T19:13:42.387Z,99841.80
2023-09-02T19:16:09.491Z,99841.58
2023-09-02T19:18:36.468Z,99843.95
2023-09-02T19:21:03.240Z,99844.39
2023-09-02T19:23:30.402Z,99841.66
2023-09-02T19:25:57.196Z,99842.08
2023-09-02T19:28:25.372Z,99842.35
2023-09-02T19:30:54.766Z,99836.05
2023-09-02T19:33:21.853Z,99834.55
2023-09-02T19:35:49.292Z,99831.23
2023-09-02T19:38:15.950Z,99832.05
2023-09-02T19:40:43.883Z,99834.77
2023-09-02T19:43:10.724Z,99836.04
2023-09-02T19:45:37.393Z,99837.81
2023-09-02T19:48:04.961Z,99841.41
2023-09-02T19:50:32.878Z,99838.34
2023-09-02T19:52:59.564Z,99837.83
2023-09-02T19:55:26.401Z,99839.13
2023-09-02T19:57:53.109Z,99840.69
2023-09-02T20:00:19.876Z,99840.27
2023-09-02T20:02:49.247Z,99843.95
2023-09-02T20:05:16.199Z,99843.71
2023-09-02T20:07:43.030Z,99841.84
2023-09-02T20:10:15.200Z,99838.68
2023-09-02T20:12:44.395Z,99836.55
2023-09-02T20:15:11.057Z,99834.52
2023-09-02T20:17:37.807Z,99833.83
2023-09-02T20:20:07.571Z,99834.54
2023-09-02T20:22:34.866Z,99833.53
2023-09-02T20:25:01.591Z,99832.41
2023-09-02T20:27:28.542Z,99834.04
2023-09-02T20:29:55.439Z,99833.96
2023-09-02T20:32:22.812Z,99831.50
2023-09-02T20:34:49.543Z,99834.46
2023-09-02T20:37:16.395Z,99838.86
2023-09-02T20:39:43.170Z,99834.48
2023-09-02T20:42:10.077Z,99835.31
2023-09-02T20:44:37.126Z,99836.36
2023-09-02T20:47:04.277Z,99836.52
2023-09-02T20:49:31.115Z,99838.30
2023-09-02T20:51:57.951Z,99836.09
2023-09-02T20:54:24.882Z,99835.06
2023-09-02T20:56:51.948Z,99832.72
2023-09-02T20:59:18.789Z,99832.09
2023-09-02T21:01:45.541Z,99829.67
2023-09-02T21:04:14.038Z,99828.71
2023-09-02T21:06:42.851Z,99829.67
2023-09-02T21:09:09.744Z,99831.85
2023-09-02T21:11:36.476Z,99831.83
2023-09-02T21:14:03.216Z,99833.37
2023-09-02T21:16:30.325Z,99834.44
2023-09-02T21:18:57.177Z,99839.20
2023-09-02T21:21:24.134Z,99838.49
2023-09-02T21:23:51.179Z,99841.11
2023-09-02T21:26:18.358Z,99838.98
2023-09-02T21:28:49.929Z,99840.75
2023-09-02T21:31:16.822Z,99841.64
2023-09-02T21:33:43.726Z,99837.98
2023-09-02T21:36:17.631Z,99841.23
2023-09-02T21:38:46.067Z,99835.83
2023-09-02T21:41:12.809Z,99838.25
2023-09-02T21:43:41.107Z,99837.29
2023-09-02T21:46:09.464Z,99835.81
2023-09-02T21:48:36.873Z,99841.45
2023-09-02T21:51:05.904Z,99842.84
2023-09-02T21:53:33.763Z,99845.73
2023-09-02T21:56:00.821Z,99850.58
2023-09-02T21:58:27.802Z,99856.54
2023-09-02T22:01:08.651Z,99854.84
2023-09-02T22:03:35.745Z,99853.81
2023-09-02T22:06:10.188Z,99847.42
2023-09-02T22:08:37.999Z,99847.04
2023-09-02T22:11:04.917Z,99849.83
2023-09-02T22:13:31.824Z,99848.50
2023-09-02T22:15:58.756Z,99846.31
2023-09-02T22:18:26.687Z,99846.20
2023-09-02T22:20:57.000Z,99840.91
2023-09-02T22:23:25.068Z,99842.58
2023-09-02T22:25:55.808Z,99844.36
2023-09-02T22:28:22.633Z,99841.73
2023-09-02T22:30:50.956Z,99843.90
2023-09-02T22:33:20.117Z,99842.92
2023-09-02T22:35:52.615Z,99846.52
2023-09-02T22:38:20.246Z,99850.86
2023-09-02T22:40:47.088Z,99851.71
2023-09-02T22:43:13.929Z,99850.65
2023-09-02T22:45:40.898Z,99844.88
2023-09-02T22:48:08.691Z,99845.52
2023-09-02T22:50:35.608Z,99840.77
2023-09-02T22:53:05.581Z,99836.84
2023-09-02T22:55:33.132Z,99838.13
2023-09-02T22:58:00.436Z,99838.69
2023-09-02T23:00:28.688Z,99843.77
2023-09-02T23:02:58.948Z,99836.18
2023-09-02T23:05:26.373Z,99837.35
2023-09-02T23:07:57.201Z,99835.27
2023-09-02T23:10:24.546Z,99833.72
2023-09-02T23:12:51.623Z,99833.26
2023-09-02T23:15:19.562Z,99837.66
2023-09-02T23:17:46.462Z,99837.66
2023-09-02T23:20:13.987Z,99835.58
2023-09-02T23:22:45.513Z,99836.36
2023-09-02T23:25:13.219Z,99834.23
2023-09-02T23:27:43.292Z,99832.34
2023-09-02T23:30:10.785Z,99829.31
2023-09-02T23:32:38.539Z,99829.05
2023-09-02T23:35:07.096Z,99826.45
2023-09-02T23:37:34.054Z,99832.54
2023-09-02T23:40:01.500Z,99833.49
2023-09-02T23:42:28.270Z,99830.90
2023-09-02T23:44:55.185Z,99828.60
2023-09-02T23:47:21.845Z,99828.99
2023-09-02T23:49:50.306Z,99830.78
2023-09-02T23:52:16.930Z,99829.34
2023-09-02T23:54:43.667Z,99830.45
2023-09-02T23:57:10.422Z,99827.64
2023-09-02T23:59:37.155Z,99824.70
